Time;durP1;ratioP1;P1;durP2;ratioP2;P2;SDS_P1;SDS_P2;PMS_P1;PMS_P2;Temp;Humidity;BMP_temperature;BMP_pressure;BME280_temperature;BME280_humidity;BME280_pressure;Samples;Min_cycle;Max_cycle;Signal;HPM_P1;HPM_P2
2022/03/05 00:01:25;;;;;;;4.43;2.37;;;;;;;-3.87;100.00;101832.00;4994063;28;20037;-80
2022/03/05 00:03:52;;;;;;;2.57;1.70;;;;;;;-3.90;100.00;101829.25;4991899;28;20524;-80
2022/03/05 00:06:22;;;;;;;2.70;1.80;;;;;;;-3.94;100.00;101829.91;5000798;28;20050;-80
2022/03/05 00:08:48;;;;;;;3.53;2.30;;;;;;;-3.93;100.00;101834.25;4971826;28;20071;-80
2022/03/05 00:11:18;;;;;;;6.57;1.93;;;;;;;-3.96;100.00;101827.19;4992828;28;20111;-81
2022/03/05 00:13:44;;;;;;;3.97;1.90;;;;;;;-3.98;100.00;101833.97;4988193;28;20049;-81
2022/03/05 00:16:14;;;;;;;3.93;1.90;;;;;;;-3.92;100.00;101827.38;4977091;28;20076;-80
2022/03/05 00:18:40;;;;;;;2.87;1.90;;;;;;;-4.02;100.00;101829.47;4994081;28;20056;-80
2022/03/05 00:21:18;;;;;;;5.93;2.50;;;;;;;-3.93;100.00;101823.94;5012707;28;20083;-81
2022/03/05 00:23:47;;;;;;;5.37;1.87;;;;;;;-4.02;100.00;101824.28;4986916;28;20084;-81
2022/03/05 00:26:14;;;;;;;3.60;2.10;;;;;;;-4.05;100.00;101823.22;5008995;28;20500;-81
2022/03/05 00:28:44;;;;;;;2.67;1.90;;;;;;;-4.09;100.00;101827.31;4996823;28;20041;-80
2022/03/05 00:31:12;;;;;;;3.63;2.10;;;;;;;-4.03;100.00;101825.09;4990197;28;20067;-81
2022/03/05 00:33:39;;;;;;;4.73;1.97;;;;;;;-4.04;100.00;101824.97;4995575;28;20049;-80
2022/03/05 00:36:06;;;;;;;3.53;2.10;;;;;;;-3.99;100.00;101828.72;4979626;28;20045;-80
2022/03/05 00:38:33;;;;;;;2.97;2.60;;;;;;;-3.91;100.00;101827.47;4994306;28;20057;-81
2022/03/05 00:41:04;;;;;;;4.07;2.63;;;;;;;-3.86;100.00;101828.63;4989744;28;20048;-80
2022/03/05 00:43:34;;;;;;;9.43;2.40;;;;;;;-3.78;100.00;101829.06;5009538;28;20124;-80
2022/03/05 00:46:04;;;;;;;4.00;2.20;;;;;;;-3.77;100.00;101833.41;4982257;28;20134;-81
2022/03/05 00:48:31;;;;;;;4.13;2.43;;;;;;;-3.72;100.00;101827.69;4968749;28;20037;-81
2022/03/05 00:51:01;;;;;;;6.93;2.83;;;;;;;-3.71;100.00;101838.91;4984474;28;20064;-81
2022/03/05 00:53:30;;;;;;;3.43;1.73;;;;;;;-3.61;100.00;101823.16;4976305;28;20092;-81
2022/03/05 00:56:00;;;;;;;3.67;1.97;;;;;;;-3.54;100.00;101826.94;4982884;28;20053;-81
2022/03/05 00:58:27;;;;;;;5.03;2.10;;;;;;;-3.61;100.00;101836.06;5011468;28;20175;-81
2022/03/05 01:00:55;;;;;;;3.23;2.30;;;;;;;-3.55;100.00;101832.91;4995076;28;20041;-81
2022/03/05 01:03:22;;;;;;;7.30;1.90;;;;;;;-3.54;100.00;101832.09;4996508;28;20715;-80
2022/03/05 01:05:50;;;;;;;5.07;2.50;;;;;;;-3.46;100.00;101829.13;4979417;28;20091;-80
2022/03/05 01:08:19;;;;;;;5.73;2.13;;;;;;;-3.44;100.00;101830.13;4993264;28;20092;-80
2022/03/05 01:10:46;;;;;;;5.10;2.13;;;;;;;-3.31;100.00;101831.66;4988742;28;20042;-80
2022/03/05 01:13:13;;;;;;;2.83;2.20;;;;;;;-3.32;100.00;101826.41;5012322;28;20044;-80
2022/03/05 01:15:40;;;;;;;5.90;2.17;;;;;;;-3.29;100.00;101823.97;4994841;28;20049;-80
2022/03/05 01:18:07;;;;;;;3.37;2.00;;;;;;;-3.27;100.00;101831.03;4997018;28;20095;-80
2022/03/05 01:20:34;;;;;;;2.90;2.00;;;;;;;-3.20;100.00;101827.06;5005795;28;20049;-80
2022/03/05 01:23:02;;;;;;;5.13;2.60;;;;;;;-3.14;100.00;101829.97;5012377;28;20068;-80
2022/03/05 01:25:29;;;;;;;3.00;2.20;;;;;;;-3.09;100.00;101833.72;4995245;28;20033;-80
2022/03/05 01:27:56;;;;;;;3.43;2.20;;;;;;;-3.06;100.00;101820.06;4995652;28;20531;-80
2022/03/05 01:30:29;;;;;;;6.17;2.47;;;;;;;-3.00;100.00;101823.84;4971984;28;20045;-80
2022/03/05 01:32:56;;;;;;;5.27;2.30;;;;;;;-2.93;100.00;101823.38;5015898;28;20061;-80
2022/03/05 01:35:22;;;;;;;4.37;2.60;;;;;;;-2.94;100.00;101829.34;5011415;28;20045;-80
2022/03/05 01:37:50;;;;;;;3.87;2.37;;;;;;;-2.94;100.00;101826.78;5011749;28;20555;-80
2022/03/05 01:40:16;;;;;;;8.93;2.33;;;;;;;-2.88;100.00;101832.25;5011823;28;20037;-80
2022/03/05 01:42:43;;;;;;;4.30;2.20;;;;;;;-2.89;100.00;101829.59;4982265;28;20053;-80
2022/03/05 01:45:11;;;;;;;4.80;2.53;;;;;;;-2.84;100.00;101815.22;5000916;28;20468;-81
2022/03/05 01:47:38;;;;;;;4.83;2.87;;;;;;;-2.75;100.00;101818.28;4993400;28;20100;-80
2022/03/05 01:50:06;;;;;;;5.37;2.77;;;;;;;-2.72;100.00;101818.41;4989851;28;20075;-81
2022/03/05 01:52:33;;;;;;;5.50;3.20;;;;;;;-2.65;100.00;101809.28;5027256;28;20041;-81
2022/03/05 01:55:02;;;;;;;5.97;2.97;;;;;;;-2.62;100.00;101804.25;5004598;28;20041;-80
2022/03/05 01:57:28;;;;;;;6.97;3.23;;;;;;;-2.61;100.00;101809.53;5009142;28;20060;-82
2022/03/05 01:59:55;;;;;;;6.37;3.67;;;;;;;-2.55;100.00;101804.66;4999472;28;20450;-81
2022/03/05 02:02:34;;;;;;;10.10;4.67;;;;;;;-2.54;100.00;101805.53;4976784;28;20034;-81
2022/03/05 02:05:04;;;;;;;12.70;4.80;;;;;;;-2.51;100.00;101807.41;5009157;28;20042;-80
2022/03/05 02:07:32;;;;;;;9.43;4.93;;;;;;;-2.34;100.00;101806.56;4998154;28;20045;-80
2022/03/05 02:09:59;;;;;;;20.07;5.80;;;;;;;-2.31;100.00;101804.09;4981539;28;20745;-80
2022/03/05 02:12:30;;;;;;;9.87;4.70;;;;;;;-2.29;100.00;101799.88;4981511;28;20504;-80
2022/03/05 02:14:58;;;;;;;13.67;4.63;;;;;;;-2.13;100.00;101796.34;5014223;28;20060;-80
2022/03/05 02:17:28;;;;;;;11.23;4.80;;;;;;;-2.14;100.00;101799.75;4992841;28;20600;-81
2022/03/05 02:19:56;;;;;;;12.90;6.07;;;;;;;-2.08;100.00;101800.06;5000263;28;20069;-81
2022/03/05 02:22:24;;;;;;;11.93;7.03;;;;;;;-1.99;100.00;101795.34;4982950;28;20050;-81
2022/03/05 02:24:54;;;;;;;12.23;6.30;;;;;;;-2.12;100.00;101800.72;4993050;23;20049;-81
2022/03/05 02:27:25;;;;;;;14.00;5.33;;;;;;;-2.09;100.00;101803.47;5011517;28;20052;-81
2022/03/05 02:29:52;;;;;;;14.33;6.83;;;;;;;-2.13;100.00;101797.25;5037092;28;20552;-83
2022/03/05 02:32:19;;;;;;;14.53;7.10;;;;;;;-2.10;100.00;101794.81;5032505;28;20045;-84
2022/03/05 02:34:46;;;;;;;16.03;7.07;;;;;;;-2.06;100.00;101803.63;5022569;28;20128;-82
2022/03/05 02:37:15;;;;;;;13.23;6.83;;;;;;;-2.09;100.00;101799.19;5032691;28;20110;-84
2022/03/05 02:39:43;;;;;;;11.40;5.67;;;;;;;-2.15;100.00;101803.16;5057194;28;20055;-83
2022/03/05 02:42:10;;;;;;;13.23;6.13;;;;;;;-2.13;100.00;101798.94;5047857;28;20569;-82
2022/03/05 02:44:37;;;;;;;14.00;7.40;;;;;;;-2.17;100.00;101799.63;5024369;28;20091;-84
2022/03/05 02:47:04;;;;;;;17.73;8.07;;;;;;;-1.92;100.00;101800.00;5038703;28;20099;-84
2022/03/05 02:49:31;;;;;;;19.40;8.30;;;;;;;-1.94;100.00;101796.41;5047142;28;20550;-83
2022/03/05 02:51:58;;;;;;;16.93;7.13;;;;;;;-1.95;100.00;101801.53;5051709;28;20037;-83
2022/03/05 02:54:24;;;;;;;15.90;6.90;;;;;;;-1.87;100.00;101792.44;5017974;28;20455;-82
2022/03/05 02:56:51;;;;;;;13.23;6.60;;;;;;;-1.78;100.00;101788.56;5014131;28;20041;-84
2022/03/05 02:59:18;;;;;;;19.83;7.77;;;;;;;-1.82;100.00;101797.03;5014722;28;20450;-84
2022/03/05 03:01:46;;;;;;;20.47;9.93;;;;;;;-1.75;100.00;101785.25;5050659;28;20425;-82
2022/03/05 03:04:13;;;;;;;15.57;7.83;;;;;;;-1.69;100.00;101790.72;5006076;28;20057;-83
2022/03/05 03:06:39;;;;;;;13.50;7.60;;;;;;;-1.62;100.00;101792.78;5051288;28;20098;-83
2022/03/05 03:09:06;;;;;;;20.00;8.30;;;;;;;-1.64;100.00;101785.75;5056303;28;20044;-84
2022/03/05 03:11:33;;;;;;;18.30;8.30;;;;;;;-1.73;100.00;101794.00;5034957;28;20048;-82
2022/03/05 03:14:00;;;;;;;19.57;9.67;;;;;;;-1.57;100.00;101782.63;5044139;28;20041;-85
2022/03/05 03:16:29;;;;;;;18.83;8.20;;;;;;;-1.77;100.00;101790.34;5015702;28;20092;-82
2022/03/05 03:18:56;;;;;;;15.83;7.93;;;;;;;-1.72;100.00;101781.09;5016574;28;20115;-85
2022/03/05 03:21:22;;;;;;;15.43;8.40;;;;;;;-1.59;100.00;101779.09;5025550;28;20041;-85
2022/03/05 03:23:49;;;;;;;18.07;8.03;;;;;;;-1.53;100.00;101784.53;5008260;28;20048;-84
2022/03/05 03:26:16;;;;;;;17.77;8.40;;;;;;;-1.61;100.00;101794.53;5018032;28;20107;-84
2022/03/05 03:28:42;;;;;;;19.30;8.07;;;;;;;-1.72;100.00;101791.47;5052299;28;20045;-85
2022/03/05 03:31:09;;;;;;;11.63;6.93;;;;;;;-1.83;100.00;101791.78;5036881;28;20041;-82
2022/03/05 03:33:36;;;;;;;16.23;8.07;;;;;;;-1.76;100.00;101794.75;5027600;28;20107;-83
2022/03/05 03:36:02;;;;;;;16.83;8.83;;;;;;;-1.81;100.00;101793.63;5055407;28;20122;-83
2022/03/05 03:38:31;;;;;;;18.83;8.53;;;;;;;-1.84;100.00;101797.78;4999848;28;20813;-81
2022/03/05 03:40:58;;;;;;;14.33;7.97;;;;;;;-1.99;100.00;101797.91;5013311;28;20137;-85
2022/03/05 03:43:25;;;;;;;15.20;6.93;;;;;;;-2.02;100.00;101797.75;5032341;28;20046;-85
2022/03/05 03:45:51;;;;;;;18.50;7.80;;;;;;;-2.06;100.00;101801.03;5020707;28;20050;-82
2022/03/05 03:48:18;;;;;;;14.40;7.17;;;;;;;-2.09;100.00;101806.06;5039668;28;20075;-83
2022/03/05 03:50:44;;;;;;;16.00;7.97;;;;;;;-2.18;100.00;101805.63;5036471;28;20057;-85
2022/03/05 03:53:11;;;;;;;15.23;7.10;;;;;;;-2.24;100.00;101792.38;5030004;28;20095;-85
2022/03/05 03:55:38;;;;;;;14.97;8.50;;;;;;;-2.27;100.00;101796.59;5018789;28;20430;-85
2022/03/05 03:58:04;;;;;;;19.87;7.67;;;;;;;-2.18;100.00;101803.03;5016114;28;20084;-85
2022/03/05 04:00:31;;;;;;;17.60;9.43;;;;;;;-2.39;100.00;101803.72;5030467;28;20040;-86
2022/03/05 04:02:58;;;;;;;20.13;8.40;;;;;;;-2.19;100.00;101796.03;5016122;28;20136;-84
2022/03/05 04:05:25;;;;;;;12.53;7.10;;;;;;;-2.23;100.00;101809.66;5037817;28;20086;-85
2022/03/05 04:10:38;;;;;;;17.20;8.87;;;;;;;-2.44;100.00;101810.34;5016948;28;20048;-85
2022/03/05 04:13:04;;;;;;;15.67;7.53;;;;;;;-2.43;100.00;101812.16;5029475;28;20052;-85
2022/03/05 04:15:31;;;;;;;13.83;8.37;;;;;;;-2.45;100.00;101815.47;5038633;28;20454;-85
2022/03/05 04:17:58;;;;;;;15.23;7.40;;;;;;;-2.55;100.00;101811.53;5019147;28;20044;-85
2022/03/05 04:20:24;;;;;;;12.63;6.87;;;;;;;-2.69;100.00;101812.50;5033799;28;20045;-85
2022/03/05 04:22:51;;;;;;;19.10;8.40;;;;;;;-2.69;100.00;101809.91;5031566;28;20040;-82
2022/03/05 04:25:18;;;;;;;17.57;8.03;;;;;;;-2.65;100.00;101812.75;5053746;28;20379;-81
2022/03/05 04:27:44;;;;;;;16.60;7.50;;;;;;;-2.63;100.00;101820.59;5051506;28;20098;-84
2022/03/05 04:30:11;;;;;;;10.77;6.43;;;;;;;-2.69;100.00;101810.84;5041132;28;20037;-84
2022/03/05 04:32:38;;;;;;;15.00;8.17;;;;;;;-2.75;100.00;101819.97;5047992;28;20140;-84
2022/03/05 04:35:06;;;;;;;12.67;7.40;;;;;;;-2.81;100.00;101817.94;5019046;28;20048;-83
2022/03/05 04:37:32;;;;;;;14.83;8.20;;;;;;;-2.79;100.00;101823.19;5014586;28;20392;-85
2022/03/05 04:39:59;;;;;;;13.40;7.83;;;;;;;-2.90;100.00;101823.53;5021101;28;20086;-83
2022/03/05 04:42:26;;;;;;;12.60;7.20;;;;;;;-2.93;100.00;101820.78;5015961;28;20033;-84
2022/03/05 04:44:53;;;;;;;14.47;6.70;;;;;;;-2.92;100.00;101824.25;5011240;28;20045;-85
2022/03/05 04:47:20;;;;;;;16.43;7.50;;;;;;;-2.91;100.00;101829.50;5018344;28;20052;-85
2022/03/05 04:49:47;;;;;;;15.53;7.87;;;;;;;-3.01;100.00;101831.53;5018207;28;20045;-83
2022/03/05 04:52:14;;;;;;;15.20;7.03;;;;;;;-3.01;100.00;101829.84;5036587;28;20040;-83
2022/03/05 04:54:40;;;;;;;15.57;8.47;;;;;;;-2.95;100.00;101835.31;5038392;28;20045;-83
2022/03/05 04:57:08;;;;;;;15.50;7.37;;;;;;;-3.02;100.00;101833.25;5038161;28;20046;-83
2022/03/05 04:59:35;;;;;;;15.03;7.07;;;;;;;-3.06;100.00;101831.28;5022851;28;20045;-83
2022/03/05 05:02:01;;;;;;;16.13;7.67;;;;;;;-3.10;100.00;101829.34;5015909;28;20049;-84
2022/03/05 05:04:29;;;;;;;14.27;7.80;;;;;;;-3.25;100.00;101828.53;5034199;28;20072;-83
2022/03/05 05:06:56;;;;;;;14.23;7.23;;;;;;;-3.25;100.00;101828.53;5033920;28;20045;-84
2022/03/05 05:09:22;;;;;;;16.00;8.53;;;;;;;-3.28;100.00;101823.19;5015375;28;20071;-84
2022/03/05 05:11:49;;;;;;;16.13;7.87;;;;;;;-3.29;100.00;101823.97;5016729;28;20439;-84
2022/03/05 05:14:16;;;;;;;14.93;7.60;;;;;;;-3.35;100.00;101836.59;5012286;28;20650;-83
2022/03/05 05:16:42;;;;;;;14.73;8.27;;;;;;;-3.34;100.00;101830.63;5032891;28;20132;-83
2022/03/05 05:19:24;;;;;;;11.47;7.60;;;;;;;-3.45;100.00;101837.75;5016115;28;20045;-84
2022/03/05 05:21:52;;;;;;;13.53;7.33;;;;;;;-3.43;100.00;101836.19;5027835;28;20049;-83
2022/03/05 05:24:19;;;;;;;12.00;6.60;;;;;;;-3.47;100.00;101829.03;5015840;28;20044;-84
2022/03/05 05:26:46;;;;;;;16.27;8.37;;;;;;;-3.55;100.00;101838.94;5012820;28;20052;-84
2022/03/05 05:29:12;;;;;;;14.63;8.20;;;;;;;-3.53;100.00;101841.63;5036573;28;20114;-84
2022/03/05 05:31:59;;;;;;;16.27;8.63;;;;;;;-3.54;100.00;101837.25;5011637;28;20041;-81
2022/03/05 05:34:26;;;;;;;9.80;6.60;;;;;;;-3.64;100.00;101834.97;5029181;28;20045;-84
2022/03/05 05:36:53;;;;;;;11.73;6.97;;;;;;;-3.59;100.00;101839.59;5044657;28;20049;-83
2022/03/05 05:39:19;;;;;;;16.20;8.30;;;;;;;-3.61;100.00;101837.75;5010822;28;20450;-83
2022/03/05 05:41:46;;;;;;;15.17;7.23;;;;;;;-3.72;100.00;101840.59;5035223;28;20037;-84
2022/03/05 05:44:12;;;;;;;12.87;7.00;;;;;;;-3.70;100.00;101841.59;5030298;28;20057;-83
2022/03/05 05:46:39;;;;;;;14.20;6.70;;;;;;;-3.68;100.00;101846.84;5038771;28;20037;-82
2022/03/05 05:49:06;;;;;;;12.47;6.27;;;;;;;-3.69;100.00;101850.25;5019032;28;20056;-81
2022/03/05 05:51:33;;;;;;;14.93;7.00;;;;;;;-3.73;100.00;101851.75;5009955;28;20053;-85
2022/03/05 05:54:00;;;;;;;15.83;7.00;;;;;;;-3.80;100.00;101851.31;5030631;28;20047;-83
2022/03/05 05:56:27;;;;;;;15.23;7.13;;;;;;;-3.78;100.00;101842.88;5045076;28;20041;-81
2022/03/05 05:58:54;;;;;;;14.00;7.33;;;;;;;-3.74;100.00;101851.66;5040815;28;20119;-82
2022/03/05 06:01:21;;;;;;;15.40;7.63;;;;;;;-3.72;100.00;101850.94;5021751;28;20041;-81
2022/03/05 06:03:49;;;;;;;18.17;7.30;;;;;;;-3.74;100.00;101849.06;5032361;28;20048;-83
2022/03/05 06:06:17;;;;;;;22.00;7.60;;;;;;;-3.79;100.00;101855.66;5046109;28;20516;-83
2022/03/05 06:08:43;;;;;;;15.80;7.90;;;;;;;-3.76;100.00;101854.16;5016539;28;20038;-83
2022/03/05 06:11:10;;;;;;;14.13;7.30;;;;;;;-3.80;100.00;101856.47;5017736;28;20045;-83
2022/03/05 06:13:37;;;;;;;12.13;6.53;;;;;;;-3.85;100.00;101857.91;5041424;28;20041;-84
2022/03/05 06:16:05;;;;;;;14.33;6.90;;;;;;;-3.80;100.00;101861.63;5028200;28;20057;-84
2022/03/05 06:18:31;;;;;;;14.10;7.43;;;;;;;-3.81;100.00;101876.25;5037730;28;20107;-82
2022/03/05 06:20:58;;;;;;;18.07;7.33;;;;;;;-3.82;100.00;101869.31;5034676;28;20209;-83
2022/03/05 06:23:25;;;;;;;14.33;7.70;;;;;;;-3.87;100.00;101870.72;5026276;28;20107;-83
2022/03/05 06:25:52;;;;;;;16.40;8.57;;;;;;;-3.87;100.00;101873.28;5013442;28;20064;-82
2022/03/05 06:28:18;;;;;;;11.87;7.27;;;;;;;-3.83;100.00;101875.28;5041590;28;20048;-83
2022/03/05 06:30:45;;;;;;;13.27;6.93;;;;;;;-3.84;100.00;101870.91;5028265;28;20057;-82
2022/03/05 06:33:12;;;;;;;12.87;6.20;;;;;;;-3.88;100.00;101881.84;5031886;28;20037;-83
2022/03/05 06:35:38;;;;;;;14.57;8.23;;;;;;;-3.83;100.00;101877.84;5055202;28;20045;-84
2022/03/05 06:38:05;;;;;;;15.93;7.60;;;;;;;-3.81;100.00;101876.25;5019969;28;20045;-84
2022/03/05 06:40:32;;;;;;;14.93;7.50;;;;;;;-3.76;100.00;101885.16;5032091;28;20095;-84
2022/03/05 06:42:58;;;;;;;11.47;6.90;;;;;;;-3.73;100.00;101880.16;5015198;28;20699;-85
2022/03/05 06:45:25;;;;;;;13.13;6.67;;;;;;;-3.71;100.00;101883.69;5019745;28;20048;-83
2022/03/05 06:47:52;;;;;;;14.17;6.90;;;;;;;-3.67;100.00;101889.94;5034709;28;20041;-83
2022/03/05 06:50:18;;;;;;;12.00;6.43;;;;;;;-3.74;100.00;101892.97;5052419;28;20432;-84
2022/03/05 06:52:45;;;;;;;14.70;7.73;;;;;;;-3.78;100.00;101894.50;5017626;28;20045;-84
2022/03/05 06:55:14;;;;;;;15.33;6.77;;;;;;;-3.72;100.00;101900.00;5040565;28;20461;-83
2022/03/05 06:57:41;;;;;;;12.13;7.17;;;;;;;-3.67;100.00;101897.69;5038900;28;20088;-84
2022/03/05 07:00:10;;;;;;;12.50;6.57;;;;;;;-3.64;100.00;101899.53;5057362;28;20108;-84
2022/03/05 07:02:36;;;;;;;17.60;6.73;;;;;;;-3.48;100.00;101903.06;5018226;28;20446;-83
2022/03/05 07:05:04;;;;;;;13.57;6.70;;;;;;;-3.37;100.00;101905.38;5024893;28;20044;-84
2022/03/05 07:07:32;;;;;;;12.80;7.00;;;;;;;-3.34;100.00;101895.22;5022478;28;20108;-84
2022/03/05 07:09:59;;;;;;;13.33;7.27;;;;;;;-3.33;100.00;101900.47;5043364;28;20128;-85
2022/03/05 07:12:25;;;;;;;12.43;6.60;;;;;;;-3.27;100.00;101897.34;5030676;28;20053;-84
2022/03/05 07:14:58;;;;;;;13.57;7.67;;;;;;;-3.29;100.00;101901.50;5044726;28;20096;-84
2022/03/05 07:17:25;;;;;;;14.43;8.00;;;;;;;-3.15;100.00;101909.22;5037399;28;20038;-85
2022/03/05 07:19:52;;;;;;;13.43;6.73;;;;;;;-3.01;100.00;101907.41;5036310;28;20589;-85
2022/03/05 07:22:18;;;;;;;13.93;6.97;;;;;;;-2.86;100.00;101899.56;5020745;28;20033;-84
2022/03/05 07:24:45;;;;;;;13.53;7.40;;;;;;;-2.62;100.00;101907.72;5024389;28;20049;-84
2022/03/05 07:27:12;;;;;;;14.13;7.17;;;;;;;-2.73;100.00;101908.88;5037759;28;20041;-82
2022/03/05 07:29:38;;;;;;;14.63;6.77;;;;;;;-2.56;100.00;101913.22;5050380;28;20107;-83
2022/03/05 07:32:06;;;;;;;12.57;6.77;;;;;;;-2.70;100.00;101906.44;5043883;28;20055;-84
2022/03/05 07:34:33;;;;;;;10.47;6.33;;;;;;;-2.36;100.00;101909.97;5045225;28;20091;-86
2022/03/05 07:36:59;;;;;;;8.77;5.63;;;;;;;-1.92;100.00;101921.72;5026575;28;20052;-85
2022/03/05 07:39:26;;;;;;;16.03;7.90;;;;;;;-1.99;100.00;101914.44;5015417;28;20037;-82
2022/03/05 07:41:53;;;;;;;11.33;5.83;;;;;;;-1.94;100.00;101918.13;5027137;28;20045;-86
2022/03/05 07:44:19;;;;;;;10.40;5.07;;;;;;;-1.93;100.00;101914.78;5018088;28;20069;-84
2022/03/05 07:46:46;;;;;;;10.13;4.90;;;;;;;-1.64;100.00;101913.59;5032300;28;20150;-85
2022/03/05 07:49:13;;;;;;;10.07;4.70;;;;;;;-1.61;100.00;101913.75;5021117;28;20121;-85
2022/03/05 07:51:40;;;;;;;9.07;4.80;;;;;;;-1.52;100.00;101908.13;5022259;28;20086;-84
2022/03/05 07:54:06;;;;;;;8.60;4.70;;;;;;;-1.44;100.00;101910.25;5020396;28;20127;-85
2022/03/05 07:56:33;;;;;;;6.67;3.73;;;;;;;-1.17;100.00;101913.31;5041653;28;20076;-83
2022/03/05 07:59:00;;;;;;;8.93;3.70;;;;;;;-0.98;100.00;101919.34;5019330;28;20041;-84
2022/03/05 08:01:27;;;;;;;8.63;4.43;;;;;;;-1.05;100.00;101912.97;5020777;28;20279;-86
2022/03/05 08:03:54;;;;;;;12.97;4.50;;;;;;;-0.84;100.00;101915.69;5018531;28;20033;-85
2022/03/05 08:06:21;;;;;;;6.67;3.67;;;;;;;-0.78;100.00;101913.34;5018017;28;20050;-85
2022/03/05 08:08:47;;;;;;;7.20;3.27;;;;;;;-0.55;100.00;101910.91;5033968;28;20045;-86
2022/03/05 08:11:14;;;;;;;6.70;2.77;;;;;;;-0.57;100.00;101918.63;5043972;28;20037;-85
2022/03/05 08:13:41;;;;;;;6.63;2.80;;;;;;;-0.50;100.00;101909.41;5029640;28;20675;-85
2022/03/05 08:16:07;;;;;;;8.90;3.10;;;;;;;-0.45;100.00;101915.69;5011552;28;20049;-83
2022/03/05 08:18:34;;;;;;;5.53;3.03;;;;;;;-0.23;100.00;101910.63;5031492;28;20132;-84
2022/03/05 08:21:02;;;;;;;3.63;2.37;;;;;;;-0.26;98.90;101919.97;5029283;28;20044;-81
2022/03/05 08:23:29;;;;;;;4.77;2.60;;;;;;;-0.10;94.99;101912.91;5013726;28;20045;-84
2022/03/05 08:25:56;;;;;;;5.47;2.17;;;;;;;-0.04;92.67;101915.75;5027123;28;20075;-86
2022/03/05 08:28:22;;;;;;;5.47;2.93;;;;;;;0.03;94.67;101923.81;5012672;28;20059;-86
2022/03/05 08:30:49;;;;;;;5.97;2.70;;;;;;;0.02;95.97;101919.47;5013256;28;20503;-83
2022/03/05 08:33:17;;;;;;;5.00;2.20;;;;;;;0.31;86.93;101920.66;5044184;28;20075;-85
2022/03/05 08:35:44;;;;;;;4.87;2.10;;;;;;;0.18;90.26;101922.75;5027181;28;20054;-85
2022/03/05 08:38:10;;;;;;;5.00;2.70;;;;;;;0.24;90.52;101914.31;5019878;28;20049;-85
2022/03/05 08:40:37;;;;;;;4.80;2.33;;;;;;;0.27;85.99;101923.16;5029677;28;20048;-85
2022/03/05 08:43:04;;;;;;;3.20;2.00;;;;;;;0.40;85.20;101915.84;5009362;28;20045;-84
2022/03/05 08:45:31;;;;;;;3.87;2.60;;;;;;;0.52;82.58;101917.25;5044772;28;20400;-83
2022/03/05 08:47:58;;;;;;;2.47;1.70;;;;;;;0.52;85.44;101914.63;5012165;28;20048;-85
2022/03/05 08:50:25;;;;;;;6.57;2.27;;;;;;;0.71;81.60;101910.16;5013580;28;20044;-86
2022/03/05 08:52:52;;;;;;;5.37;2.20;;;;;;;0.76;84.20;101909.53;5013457;28;20454;-85
2022/03/05 08:55:19;;;;;;;7.53;2.80;;;;;;;0.83;81.35;101911.50;5016900;28;20178;-83
2022/03/05 08:57:46;;;;;;;3.60;1.97;;;;;;;0.87;81.90;101912.53;5022730;28;20075;-83
2022/03/05 09:00:14;;;;;;;5.00;1.73;;;;;;;0.86;82.36;101913.38;5024298;28;20045;-83
2022/03/05 09:02:42;;;;;;;4.77;1.83;;;;;;;0.89;83.14;101915.19;5024546;28;20045;-83
2022/03/05 09:05:10;;;;;;;3.03;1.83;;;;;;;1.03;83.76;101909.69;5031882;28;20575;-83
2022/03/05 09:07:36;;;;;;;2.33;1.50;;;;;;;1.20;80.30;101914.66;5022168;28;20080;-83
2022/03/05 09:10:04;;;;;;;2.97;1.50;;;;;;;1.12;78.64;101914.38;5020548;28;20386;-82
2022/03/05 09:12:30;;;;;;;2.10;1.40;;;;;;;1.27;76.88;101917.56;5030387;28;20052;-83
2022/03/05 09:14:57;;;;;;;2.70;1.90;;;;;;;1.50;76.88;101920.09;5016353;28;20049;-83
2022/03/05 09:17:24;;;;;;;2.40;1.43;;;;;;;1.45;74.58;101909.53;5031771;28;20041;-84
2022/03/05 09:19:50;;;;;;;2.33;1.20;;;;;;;1.56;75.53;101905.59;5018754;28;20041;-83
2022/03/05 09:22:17;;;;;;;3.63;1.40;;;;;;;1.60;74.11;101912.69;5015873;28;20088;-84
2022/03/05 09:24:44;;;;;;;3.40;1.50;;;;;;;1.85;72.00;101910.94;5033074;28;20040;-83
2022/03/05 09:27:11;;;;;;;3.47;1.60;;;;;;;2.18;73.53;101904.25;5031865;28;20041;-84
2022/03/05 09:29:38;;;;;;;3.30;1.60;;;;;;;2.03;69.39;101901.16;5023648;28;20587;-83
2022/03/05 09:32:05;;;;;;;3.77;1.60;;;;;;;2.29;70.89;101908.97;5033015;28;20099;-83
2022/03/05 09:34:32;;;;;;;3.23;1.77;;;;;;;2.39;69.73;101908.44;5013622;28;20038;-84
2022/03/05 09:36:59;;;;;;;4.70;2.10;;;;;;;2.65;68.17;101904.06;5029198;28;20037;-83
2022/03/05 09:39:26;;;;;;;3.30;1.70;;;;;;;2.77;68.89;101902.69;5029123;28;20055;-83
2022/03/05 09:41:53;;;;;;;3.70;2.10;;;;;;;3.03;68.76;101898.31;5029852;28;20045;-82
2022/03/05 09:44:20;;;;;;;4.97;2.10;;;;;;;3.55;72.20;101894.56;5036728;28;20041;-83
2022/03/05 09:46:47;;;;;;;3.40;1.57;;;;;;;3.48;66.52;101897.84;5014730;28;20045;-83
2022/03/05 09:49:14;;;;;;;3.53;2.07;;;;;;;3.34;66.20;101904.41;5012626;28;20524;-82
2022/03/05 09:51:41;;;;;;;4.43;2.33;;;;;;;3.37;66.75;101900.16;5015635;28;20052;-82
2022/03/05 09:54:07;;;;;;;2.40;1.60;;;;;;;3.27;67.15;101895.50;5060179;28;20644;-85
2022/03/05 09:56:34;;;;;;;4.27;2.40;;;;;;;2.95;66.86;101891.97;5038541;28;20671;-84
2022/03/05 09:59:01;;;;;;;4.07;2.17;;;;;;;2.67;67.09;101894.53;5019642;28;20044;-81
2022/03/05 10:01:28;;;;;;;4.40;2.60;;;;;;;2.99;67.28;101905.97;5039128;28;20041;-83
2022/03/05 10:03:56;;;;;;;4.10;2.17;;;;;;;3.21;65.29;101904.91;5021763;28;20567;-83
2022/03/05 10:06:27;;;;;;;4.87;1.97;;;;;;;3.21;66.89;101899.69;5036369;28;20595;-82
2022/03/05 10:08:57;;;;;;;3.33;1.77;;;;;;;3.12;65.31;101902.03;5031657;28;20752;-83
2022/03/05 10:11:25;;;;;;;5.33;2.30;;;;;;;3.18;67.59;101903.06;5038826;28;20074;-85
2022/03/05 10:13:52;;;;;;;5.30;1.87;;;;;;;3.24;67.75;101899.75;5038493;28;20857;-84
2022/03/05 10:16:31;;;;;;;4.80;2.50;;;;;;;3.22;65.00;101901.44;5016707;28;20049;-84
2022/03/05 10:19:17;;;;;;;4.40;1.90;;;;;;;3.34;65.89;101905.28;5031188;28;20108;-84
2022/03/05 10:22:04;;;;;;;2.50;1.50;;;;;;;3.45;65.57;101896.88;5051086;28;20049;-82
2022/03/05 10:24:30;;;;;;;4.23;1.70;;;;;;;3.39;64.81;101901.09;5017123;28;20052;-84
2022/03/05 10:26:57;;;;;;;2.90;1.23;;;;;;;3.41;64.03;101892.41;5049770;28;20230;-83
2022/03/05 10:29:34;;;;;;;4.40;1.50;;;;;;;3.78;65.76;101895.19;5016705;28;20051;-83
2022/03/05 10:32:04;;;;;;;2.27;1.50;;;;;;;3.83;61.95;101893.59;5014881;28;20049;-82
2022/03/05 10:34:56;;;;;;;2.70;1.70;;;;;;;4.23;62.63;101898.13;5009003;28;20064;-83
2022/03/05 10:37:23;;;;;;;6.30;3.83;;;;;;;4.65;58.58;101889.56;5027090;28;20124;-84
2022/03/05 10:39:51;;;;;;;10.13;5.70;;;;;;;4.79;59.80;101884.63;5034968;28;20061;-81
2022/03/05 10:42:23;;;;;;;13.43;8.10;;;;;;;4.86;59.73;101893.50;5025145;28;20147;-83
2022/03/05 10:45:06;;;;;;;9.53;5.50;;;;;;;4.75;58.78;101885.41;5027431;28;20045;-81
2022/03/05 10:47:41;;;;;;;5.50;3.27;;;;;;;5.02;58.70;101879.91;5016779;28;20099;-83
2022/03/05 10:50:29;;;;;;;36.70;20.40;;;;;;;4.73;58.38;101888.00;5015897;28;20842;-83
2022/03/05 10:53:00;;;;;;;4.00;2.83;;;;;;;4.82;57.04;101882.09;5033288;28;20049;-82
2022/03/05 10:55:30;;;;;;;3.90;2.20;;;;;;;4.84;57.69;101879.50;5018854;28;20037;-82
2022/03/05 10:58:14;;;;;;;7.23;3.17;;;;;;;5.18;57.55;101870.63;5023601;28;20045;-82
2022/03/05 11:00:41;;;;;;;2.72;1.70;;;;;;;4.64;56.05;101876.44;5017321;28;20045;-80
2022/03/05 11:03:08;;;;;;;4.60;1.60;;;;;;;4.80;54.97;101874.19;5012496;28;20047;-81
2022/03/05 11:05:36;;;;;;;8.30;5.47;;;;;;;4.80;56.15;101873.31;5018102;28;20047;-79
2022/03/05 11:08:04;;;;;;;3.63;1.93;;;;;;;4.40;56.81;101877.63;5049122;28;20064;-80
2022/03/05 11:10:31;;;;;;;2.57;1.50;;;;;;;4.00;57.67;101873.13;5016831;28;20040;-80
2022/03/05 11:13:02;;;;;;;3.30;1.87;;;;;;;3.88;58.83;101870.19;5014549;28;20045;-80
2022/03/05 11:15:32;;;;;;;2.50;1.37;;;;;;;3.75;59.67;101868.09;5032735;28;20495;-79
2022/03/05 11:17:59;;;;;;;3.73;1.40;;;;;;;3.39;59.60;101863.63;5012835;28;20068;-80
2022/03/05 11:20:27;;;;;;;1.53;1.10;;;;;;;3.33;60.91;101869.56;5031866;28;20059;-79
2022/03/05 11:22:54;;;;;;;4.93;2.03;;;;;;;3.12;59.66;101870.69;5034033;28;20045;-80